Time;durP1;ratioP1;P1;durP2;ratioP2;P2;SDS_P1;SDS_P2;PMS_P1;PMS_P2;Temp;Humidity;BMP_temperature;BMP_pressure;BME280_temperature;BME280_humidity;BME280_pressure;Samples;Min_cycle;Max_cycle;Signal;HPM_P1;HPM_P2
2023/01/05 00:01:02;;;;;;;0.37;0.20;;;;;;;12.68;90.84;100895.75;5059212;28;20238;-65
2023/01/05 00:03:30;;;;;;;0.67;0.20;;;;;;;12.70;89.94;100884.00;5062713;28;20214;-67
2023/01/05 00:06:01;;;;;;;0.10;0.10;;;;;;;12.74;89.62;100860.59;5056792;28;20638;-65
2023/01/05 00:08:30;;;;;;;0.30;0.20;;;;;;;12.77;89.21;100857.59;5054409;28;20747;-66
2023/01/05 00:22:33;;;;;;;1.00;0.17;;;;;;;12.85;87.51;100864.81;5053761;28;20319;-65
2023/01/05 00:25:05;;;;;;;0.30;0.13;;;;;;;12.90;86.90;100868.72;5053199;28;20248;-66
2023/01/05 00:27:39;;;;;;;0.47;0.10;;;;;;;12.97;86.22;100864.44;5054040;28;20285;-65
2023/01/05 00:30:08;;;;;;;0.20;0.20;;;;;;;12.96;86.50;100862.75;5049787;28;20993;-66
2023/01/05 00:32:36;;;;;;;1.30;0.13;;;;;;;12.98;86.22;100863.44;5053817;28;20211;-65
2023/01/05 00:35:05;;;;;;;0.10;0.10;;;;;;;12.99;85.85;100851.81;5051783;28;20311;-66
2023/01/05 00:37:35;;;;;;;0.10;0.10;;;;;;;12.93;86.34;100860.41;5059767;28;20319;-65
2023/01/05 00:40:05;;;;;;;0.50;0.10;;;;;;;12.98;86.47;100842.16;5061435;28;20212;-66
2023/01/05 00:42:33;;;;;;;0.23;0.10;;;;;;;13.00;86.19;100853.50;5062617;28;20238;-65
2023/01/05 00:45:01;;;;;;;0.20;0.10;;;;;;;13.06;85.75;100868.84;5064292;28;20233;-66
2023/01/05 00:47:29;;;;;;;0.50;0.20;;;;;;;13.11;85.42;100863.88;5064795;28;20264;-66
2023/01/05 00:49:56;;;;;;;0.37;0.27;;;;;;;13.07;85.63;100854.53;5060437;28;20645;-65
2023/01/05 00:52:24;;;;;;;0.73;0.20;;;;;;;13.10;85.70;100858.72;5057498;28;20216;-65
2023/01/05 00:54:52;;;;;;;0.30;0.20;;;;;;;13.08;85.96;100850.91;5054825;28;20872;-66
2023/01/05 00:57:21;;;;;;;0.57;0.20;;;;;;;13.05;86.51;100848.53;5060414;28;20220;-66
2023/01/05 00:59:49;;;;;;;0.20;0.20;;;;;;;13.07;86.53;100843.88;5058527;28;20729;-66
2023/01/05 01:02:17;;;;;;;0.10;0.10;;;;;;;13.06;86.61;100844.88;5059286;28;20230;-65
2023/01/05 01:04:45;;;;;;;0.20;0.13;;;;;;;13.03;86.90;100847.84;5059980;28;20290;-66
2023/01/05 01:07:12;;;;;;;0.30;0.20;;;;;;;13.04;87.32;100844.19;5055781;28;20204;-66
2023/01/05 01:09:40;;;;;;;0.70;0.10;;;;;;;13.05;87.79;100840.53;5061916;28;20242;-66
2023/01/05 01:12:08;;;;;;;0.40;0.10;;;;;;;13.08;87.83;100829.59;5060433;28;20217;-64
2023/01/05 01:14:38;;;;;;;0.10;0.10;;;;;;;13.08;87.68;100839.41;5064834;28;20227;-66
2023/01/05 01:17:06;;;;;;;0.10;0.10;;;;;;;13.06;88.00;100831.56;5066030;28;20291;-66
2023/01/05 01:19:34;;;;;;;1.13;0.20;;;;;;;13.11;87.85;100839.91;5068099;28;20218;-66
2023/01/05 01:22:02;;;;;;;0.60;0.20;;;;;;;13.17;87.31;100831.34;5068065;28;21003;-66
2023/01/05 01:24:30;;;;;;;0.23;0.20;;;;;;;13.16;87.10;100834.16;5068154;28;20250;-66
2023/01/05 01:26:58;;;;;;;0.70;0.30;;;;;;;13.15;86.97;100836.00;5067467;28;20238;-66
2023/01/05 01:29:26;;;;;;;0.37;0.20;;;;;;;13.15;87.28;100837.81;5062465;28;20403;-67
2023/01/05 01:31:55;;;;;;;0.47;0.13;;;;;;;13.14;87.44;100839.63;5063982;28;20259;-66
2023/01/05 01:34:23;;;;;;;0.27;0.20;;;;;;;13.14;87.45;100831.66;5064789;28;20235;-66
2023/01/05 01:36:51;;;;;;;0.73;0.20;;;;;;;13.13;87.85;100832.66;5063907;28;20214;-66
2023/01/05 01:39:18;;;;;;;0.60;0.40;;;;;;;13.13;88.19;100822.00;5059920;28;20216;-67
2023/01/05 01:41:47;;;;;;;0.97;0.27;;;;;;;13.21;87.91;100825.69;5059916;28;20214;-66
2023/01/05 01:44:48;;;;;;;0.50;0.30;;;;;;;13.17;88.12;100819.88;5057615;28;20207;-66
2023/01/05 01:47:23;;;;;;;0.90;0.30;;;;;;;13.21;88.09;100828.34;4977911;28;20220;-67
2023/01/05 01:49:51;;;;;;;0.40;0.27;;;;;;;13.27;88.04;100833.09;4976177;28;20205;-67
2023/01/05 01:52:21;;;;;;;0.30;0.20;;;;;;;13.19;88.22;100832.00;5016263;28;20308;-66
2023/01/05 01:54:51;;;;;;;0.30;0.10;;;;;;;13.23;88.19;100829.88;5057228;28;20922;-65
2023/01/05 01:57:20;;;;;;;0.63;0.30;;;;;;;13.29;88.51;100841.72;5055012;28;20329;-67
2023/01/05 01:59:48;;;;;;;0.30;0.20;;;;;;;13.28;88.51;100830.22;5057813;28;20210;-65
2023/01/05 02:02:22;;;;;;;0.53;0.20;;;;;;;13.30;88.94;100843.41;5056954;28;20238;-65
2023/01/05 02:04:51;;;;;;;0.20;0.20;;;;;;;13.35;88.83;100836.63;5058004;28;20786;-64
2023/01/05 02:07:19;;;;;;;2.57;0.30;;;;;;;13.29;88.77;100831.91;5055228;28;20581;-65
2023/01/05 02:09:47;;;;;;;0.40;0.30;;;;;;;13.34;89.07;100836.78;5057486;28;21093;-65
2023/01/05 02:12:31;;;;;;;0.70;0.30;;;;;;;13.37;89.15;100834.63;5057499;28;20204;-65
2023/01/05 02:15:12;;;;;;;1.83;0.27;;;;;;;13.34;89.45;100828.78;5055486;28;20226;-66
2023/01/05 02:17:52;;;;;;;0.60;0.30;;;;;;;13.32;89.84;100830.78;5056373;28;20294;-64
2023/01/05 02:20:47;;;;;;;0.30;0.20;;;;;;;13.35;90.22;100841.97;5053599;28;20620;-65
2023/01/05 02:24:09;;;;;;;0.90;0.30;;;;;;;13.38;91.02;100840.78;5056683;28;20236;-65
2023/01/05 02:27:15;;;;;;;0.43;0.30;;;;;;;13.43;90.56;100850.00;5047018;28;20677;-64
2023/01/05 02:30:03;;;;;;;0.63;0.30;;;;;;;13.45;92.27;100848.03;5055015;28;20220;-65
2023/01/05 02:32:40;;;;;;;1.00;0.50;;;;;;;13.48;92.83;100857.50;5058318;28;20206;-66
2023/01/05 02:35:15;;;;;;;1.20;0.40;;;;;;;13.44;94.84;100861.50;5057937;28;20206;-65
2023/01/05 02:37:48;;;;;;;1.87;0.40;;;;;;;13.42;95.72;100858.97;5056557;28;20206;-64
2023/01/05 02:40:22;;;;;;;1.17;0.50;;;;;;;13.41;96.53;100851.13;5051687;28;23646;-67
2023/01/05 02:42:53;;;;;;;1.33;0.60;;;;;;;13.42;97.25;100853.66;5056263;28;20222;-66
2023/01/05 02:45:22;;;;;;;1.27;0.50;;;;;;;13.34;98.16;100861.59;5055835;28;20218;-64
2023/01/05 02:47:52;;;;;;;2.30;0.60;;;;;;;13.32;97.56;100862.72;5059612;28;20895;-65
2023/01/05 02:50:23;;;;;;;1.07;0.57;;;;;;;13.32;97.27;100860.91;5058088;28;20674;-65
2023/01/05 02:52:57;;;;;;;0.93;0.60;;;;;;;13.37;97.64;100871.09;5045404;28;20291;-64
2023/01/05 02:55:32;;;;;;;4.97;0.80;;;;;;;13.37;98.21;100860.44;5054346;28;20301;-65
2023/01/05 02:58:03;;;;;;;2.60;0.77;;;;;;;13.37;98.83;100868.44;5056865;28;20225;-65
2023/01/05 03:00:36;;;;;;;1.30;0.60;;;;;;;13.39;99.45;100874.44;5057954;28;20218;-64
2023/01/05 03:03:13;;;;;;;2.40;0.70;;;;;;;13.39;99.33;100866.44;5056133;28;20230;-66
2023/01/05 03:05:48;;;;;;;2.17;0.43;;;;;;;13.34;100.00;100871.41;5049620;28;20769;-65
2023/01/05 03:08:24;;;;;;;2.60;0.50;;;;;;;13.30;100.00;100872.69;5056764;28;20810;-66
2023/01/05 03:13:51;;;;;;;1.67;0.60;;;;;;;13.29;100.00;100874.53;5058940;28;20267;-65
2023/01/05 03:16:23;;;;;;;4.70;0.60;;;;;;;13.26;100.00;100871.34;5059757;28;20219;-65
2023/01/05 03:35:40;;;;;;;2.27;0.47;;;;;;;13.27;98.78;100887.19;5059012;28;21965;-67
2023/01/05 03:38:19;;;;;;;2.03;0.57;;;;;;;13.27;99.93;100891.66;5059769;28;20289;-66
2023/01/05 03:40:51;;;;;;;2.40;0.50;;;;;;;13.23;100.00;100895.63;5054406;28;20211;-67
2023/01/05 03:43:20;;;;;;;0.90;0.40;;;;;;;13.17;100.00;100897.09;5054528;28;20719;-67
2023/01/05 03:45:52;;;;;;;2.33;0.63;;;;;;;13.18;100.00;100896.94;5050925;28;20216;-66
2023/01/05 03:48:21;;;;;;;1.07;0.50;;;;;;;13.15;100.00;100897.22;5052342;28;21288;-66
2023/01/05 03:50:50;;;;;;;0.90;0.50;;;;;;;13.12;100.00;100892.19;5052539;28;20202;-67
2023/01/05 03:53:17;;;;;;;1.37;0.60;;;;;;;13.06;100.00;100902.63;5049052;28;20613;-65
2023/01/05 03:55:45;;;;;;;1.43;0.60;;;;;;;13.01;100.00;100896.94;5053000;28;20324;-67
2023/01/05 03:58:13;;;;;;;1.27;0.60;;;;;;;12.96;100.00;100897.38;5054335;28;20220;-65
2023/01/05 04:00:41;;;;;;;1.13;0.53;;;;;;;12.92;100.00;100909.31;5049749;28;20213;-66
2023/01/05 04:03:09;;;;;;;3.80;0.70;;;;;;;12.88;100.00;100918.59;5054976;28;20348;-66
2023/01/05 04:05:37;;;;;;;3.87;0.90;;;;;;;12.84;95.66;100938.50;5051358;28;20229;-66
2023/01/05 04:08:06;;;;;;;10.07;1.03;;;;;;;12.85;93.08;100940.19;5052505;28;20222;-66
2023/01/05 04:10:34;;;;;;;6.73;1.23;;;;;;;12.84;89.79;100948.34;5053124;28;20298;-65
2023/01/05 04:13:02;;;;;;;11.97;1.50;;;;;;;12.86;87.31;100947.19;5052287;28;20207;-66
2023/01/05 04:15:30;;;;;;;10.67;1.70;;;;;;;12.88;85.75;100944.38;5052743;28;20922;-66
2023/01/05 04:17:58;;;;;;;9.43;1.80;;;;;;;12.84;83.31;100959.78;5055580;28;20204;-65
2023/01/05 04:20:26;;;;;;;12.20;1.87;;;;;;;12.81;82.77;100962.78;5053704;28;20211;-66
2023/01/05 04:22:54;;;;;;;4.83;1.07;;;;;;;12.81;83.61;100954.78;5052548;28;20215;-66
2023/01/05 04:25:23;;;;;;;9.30;1.60;;;;;;;12.83;82.69;100968.78;5054591;28;20789;-66
2023/01/05 04:27:51;;;;;;;15.43;2.47;;;;;;;12.81;82.28;100981.41;5052890;28;20288;-65
2023/01/05 04:30:20;;;;;;;11.17;2.60;;;;;;;12.75;81.92;100980.16;5055434;28;20313;-66
2023/01/05 04:32:48;;;;;;;9.00;1.50;;;;;;;12.80;81.63;100990.38;5056731;28;20244;-67
2023/01/05 04:35:16;;;;;;;10.07;1.50;;;;;;;12.80;80.11;100995.69;5055230;28;20201;-66
2023/01/05 04:37:44;;;;;;;12.90;2.13;;;;;;;12.82;79.04;101004.38;5052205;28;20208;-66
2023/01/05 04:40:12;;;;;;;13.03;1.83;;;;;;;12.84;78.18;100999.72;5055055;28;20211;-67
2023/01/05 04:42:42;;;;;;;14.13;2.00;;;;;;;12.72;78.54;101007.09;5054860;28;20660;-66
2023/01/05 04:45:11;;;;;;;14.90;2.40;;;;;;;12.66;78.27;101001.53;5053579;28;20231;-65
2023/01/05 04:47:39;;;;;;;13.30;1.90;;;;;;;12.64;78.51;100998.19;5052639;28;20216;-65
2023/01/05 04:50:08;;;;;;;12.03;2.27;;;;;;;12.61;77.66;100995.81;5056516;28;20199;-64
2023/01/05 04:52:36;;;;;;;10.27;1.60;;;;;;;12.63;77.03;100994.69;5054638;28;20238;-65
2023/01/05 04:55:05;;;;;;;11.20;1.70;;;;;;;12.61;77.09;100999.31;5048220;28;21132;-65
2023/01/05 04:57:33;;;;;;;10.53;1.83;;;;;;;12.64;76.64;101003.50;5056195;28;20204;-64
2023/01/05 05:00:03;;;;;;;11.73;1.83;;;;;;;12.70;76.40;101005.56;5056361;28;20235;-66
2023/01/05 05:02:32;;;;;;;12.03;2.37;;;;;;;12.71;75.50;101008.06;5055588;28;20264;-67
2023/01/05 05:05:00;;;;;;;11.93;2.07;;;;;;;12.75;75.32;101013.94;5055347;28;20228;-65
2023/01/05 05:07:28;;;;;;;13.07;2.00;;;;;;;12.69;75.36;101009.19;5055417;28;20598;-65
2023/01/05 05:09:56;;;;;;;14.40;2.33;;;;;;;12.71;74.49;101012.56;5058844;28;20209;-66
2023/01/05 05:12:24;;;;;;;9.43;1.43;;;;;;;12.71;74.72;101023.19;5058948;28;20238;-67
2023/01/05 05:14:52;;;;;;;13.63;1.67;;;;;;;12.68;74.50;101018.16;5061695;28;20617;-67
2023/01/05 05:17:21;;;;;;;13.43;1.63;;;;;;;12.64;73.85;101022.97;5059105;28;20576;-66
2023/01/05 05:19:49;;;;;;;11.63;2.20;;;;;;;12.66;73.20;101026.31;5056869;28;20207;-66
2023/01/05 05:22:18;;;;;;;9.00;2.50;;;;;;;12.67;72.75;101030.63;5058884;28;20214;-65
2023/01/05 05:24:48;;;;;;;11.60;1.47;;;;;;;12.67;72.16;101027.13;5055277;28;20237;-65
2023/01/05 05:27:16;;;;;;;10.03;1.87;;;;;;;12.66;72.33;101028.97;5062131;28;20246;-67
2023/01/05 05:29:43;;;;;;;9.53;1.93;;;;;;;12.59;71.83;101021.72;5061780;28;20250;-66
2023/01/05 05:32:11;;;;;;;10.33;1.67;;;;;;;12.61;70.87;101019.75;5061684;28;20203;-65
2023/01/05 05:34:42;;;;;;;16.20;2.37;;;;;;;12.68;70.78;101034.97;5060712;28;20211;-65
2023/01/05 05:37:12;;;;;;;10.70;1.60;;;;;;;12.66;70.72;101038.78;5064994;28;20196;-66
2023/01/05 05:39:40;;;;;;;15.80;2.40;;;;;;;12.62;69.53;101034.72;5058972;28;20671;-67
2023/01/05 05:42:07;;;;;;;13.80;2.23;;;;;;;12.72;69.91;101040.84;5057383;28;20200;-64
2023/01/05 05:44:35;;;;;;;10.57;1.80;;;;;;;12.74;69.60;101052.19;5055849;28;20246;-65
2023/01/05 05:47:08;;;;;;;15.30;2.10;;;;;;;12.72;69.75;101033.69;5057367;28;20214;-66
2023/01/05 05:49:36;;;;;;;9.93;1.90;;;;;;;12.72;70.69;101055.00;5056274;28;20204;-65
2023/01/05 05:52:05;;;;;;;11.60;1.80;;;;;;;12.65;70.46;101050.41;5055486;28;20200;-66
2023/01/05 05:54:33;;;;;;;12.90;2.10;;;;;;;12.70;71.26;101056.13;5054654;28;20207;-65
2023/01/05 05:57:00;;;;;;;12.47;1.87;;;;;;;12.75;71.13;101062.66;5058889;28;20310;-67
2023/01/05 05:59:28;;;;;;;15.03;2.50;;;;;;;12.68;71.05;101066.06;5057642;28;20219;-66
2023/01/05 06:01:56;;;;;;;17.33;2.20;;;;;;;12.75;71.20;101061.84;5055865;28;20212;-65
2023/01/05 06:04:24;;;;;;;13.03;2.10;;;;;;;12.70;71.61;101070.25;5045586;28;20227;-64
2023/01/05 06:06:51;;;;;;;11.17;1.93;;;;;;;12.68;71.67;101076.69;5057344;28;20212;-66
2023/01/05 06:09:23;;;;;;;13.40;2.37;;;;;;;12.70;70.27;101077.41;5058766;28;20299;-68
2023/01/05 06:11:51;;;;;;;7.13;1.57;;;;;;;12.65;70.23;101079.69;5058661;28;20215;-65
2023/01/05 06:14:19;;;;;;;13.77;2.30;;;;;;;12.63;69.58;101079.81;5060883;28;20211;-67
2023/01/05 06:16:47;;;;;;;11.53;2.33;;;;;;;12.63;69.97;101077.16;5062921;28;20212;-65
2023/01/05 06:19:16;;;;;;;12.13;2.47;;;;;;;12.68;69.87;101076.69;5062584;28;20242;-66
2023/01/05 06:21:44;;;;;;;9.47;1.93;;;;;;;12.71;69.76;101071.09;5064564;28;20616;-64
2023/01/05 06:24:12;;;;;;;15.27;2.20;;;;;;;12.64;70.91;101080.66;5060270;28;20207;-65
2023/01/05 06:26:41;;;;;;;9.63;2.00;;;;;;;12.65;71.46;101083.19;5060017;28;20253;-67
2023/01/05 06:29:09;;;;;;;16.57;2.70;;;;;;;12.69;71.78;101083.69;5055694;28;20223;-65
2023/01/05 06:31:37;;;;;;;15.53;2.57;;;;;;;12.64;72.26;101085.97;5056752;28;20220;-65
2023/01/05 06:34:04;;;;;;;10.17;2.07;;;;;;;12.65;72.06;101087.66;5056792;28;20211;-66
2023/01/05 06:36:32;;;;;;;9.10;2.13;;;;;;;12.64;72.21;101096.63;5060469;28;20203;-66
2023/01/05 06:39:00;;;;;;;14.03;2.20;;;;;;;12.63;72.07;101106.44;5058662;28;20216;-64
2023/01/05 06:41:28;;;;;;;11.83;2.10;;;;;;;12.65;72.46;101106.28;5056076;28;20653;-66
2023/01/05 06:43:57;;;;;;;17.10;2.33;;;;;;;12.63;72.49;101086.97;5054563;28;20212;-65
2023/01/05 06:46:25;;;;;;;10.53;2.07;;;;;;;12.63;72.72;101092.28;5059213;28;20583;-66
2023/01/05 06:48:53;;;;;;;14.47;2.00;;;;;;;12.67;72.89;101089.16;5057211;28;20205;-66
2023/01/05 06:51:20;;;;;;;13.60;2.53;;;;;;;12.66;73.21;101092.84;5058879;28;20216;-66
2023/01/05 06:53:48;;;;;;;15.80;2.57;;;;;;;12.63;73.21;101092.28;5057139;28;20203;-65
2023/01/05 06:56:16;;;;;;;13.27;2.43;;;;;;;12.61;73.39;101100.41;5057869;28;20207;-66
2023/01/05 06:58:44;;;;;;;13.67;2.23;;;;;;;12.62;73.42;101095.91;5058350;28;20207;-66
2023/01/05 07:01:13;;;;;;;12.87;2.23;;;;;;;12.62;73.70;101095.91;5058196;28;20214;-66
2023/01/05 07:03:40;;;;;;;13.73;3.03;;;;;;;12.59;74.20;101094.38;5056600;28;20720;-65
2023/01/05 07:06:08;;;;;;;14.10;2.23;;;;;;;12.58;73.95;101090.03;5056972;28;20266;-67
2023/01/05 07:08:41;;;;;;;15.73;1.97;;;;;;;12.56;74.50;101099.19;5056881;28;20204;-66
2023/01/05 07:11:09;;;;;;;18.07;2.63;;;;;;;12.59;74.62;101104.19;5059385;28;20258;-66
2023/01/05 07:13:37;;;;;;;12.53;2.10;;;;;;;12.65;74.46;101103.63;5063253;28;20219;-66
2023/01/05 07:16:05;;;;;;;12.07;1.97;;;;;;;12.66;74.46;101110.63;5059271;28;20234;-66
2023/01/05 07:18:34;;;;;;;16.13;2.40;;;;;;;12.64;74.09;101104.59;5062117;28;20203;-65
2023/01/05 07:21:02;;;;;;;15.97;2.40;;;;;;;12.70;73.87;101104.00;5062327;28;20215;-66
2023/01/05 07:23:30;;;;;;;10.80;3.37;;;;;;;12.63;74.02;101102.94;5063253;28;20565;-66
2023/01/05 07:26:00;;;;;;;13.87;2.60;;;;;;;12.59;74.83;101106.84;5059503;28;20358;-66
2023/01/05 07:28:28;;;;;;;13.87;2.57;;;;;;;12.62;74.59;101103.91;5058599;28;20208;-66
2023/01/05 07:30:56;;;;;;;17.60;3.05;;;;;;;12.76;74.20;101116.72;5054938;28;20955;-61
2023/01/05 07:33:24;;;;;;;16.73;3.37;;;;;;;12.77;73.66;101113.91;5057477;28;20211;-60
2023/01/05 07:35:53;;;;;;;16.00;2.80;;;;;;;12.67;74.04;101120.25;5058405;28;20691;-60
2023/01/05 07:38:21;;;;;;;7.50;2.07;;;;;;;12.59;74.46;101130.78;5057443;28;20239;-60
2023/01/05 07:40:48;;;;;;;10.17;2.23;;;;;;;12.61;74.57;101128.84;5052844;28;20208;-60
2023/01/05 07:43:16;;;;;;;15.17;2.47;;;;;;;12.62;74.65;101125.19;5053849;28;20221;-61
2023/01/05 07:45:44;;;;;;;18.37;3.03;;;;;;;12.63;74.60;101132.19;5055415;28;20231;-61
2023/01/05 07:48:12;;;;;;;16.00;2.67;;;;;;;12.69;74.32;101127.13;5057843;28;20215;-62
2023/01/05 07:50:39;;;;;;;11.67;2.37;;;;;;;12.67;74.36;101138.88;5057647;28;20936;-61
2023/01/05 07:53:08;;;;;;;16.93;2.37;;;;;;;12.70;74.34;101149.25;5057829;28;20205;-63
2023/01/05 07:55:36;;;;;;;11.20;2.30;;;;;;;12.69;73.66;101158.22;5054805;28;20563;-62
2023/01/05 07:58:04;;;;;;;14.33;3.07;;;;;;;12.66;74.34;101153.19;5062917;28;20210;-61
2023/01/05 08:00:32;;;;;;;12.47;2.20;;;;;;;12.64;74.38;101155.16;5055957;28;20215;-60
2023/01/05 08:02:59;;;;;;;9.70;1.97;;;;;;;12.65;74.43;101156.84;5056838;28;20653;-60
2023/01/05 08:05:32;;;;;;;15.07;2.40;;;;;;;12.68;74.28;101161.84;5058938;28;20251;-61
2023/01/05 08:08:00;;;;;;;8.83;2.30;;;;;;;12.69;74.22;101163.53;5052813;28;20211;-62
2023/01/05 08:10:29;;;;;;;12.93;2.57;;;;;;;12.70;73.99;101166.06;5054968;28;20208;-61
2023/01/05 08:15:47;;;;;;;15.23;2.47;;;;;;;12.76;73.44;101177.94;5054018;28;20215;-61
2023/01/05 08:18:18;;;;;;;10.20;1.87;;;;;;;12.75;73.54;101178.94;5051452;28;20579;-61
2023/01/05 08:20:50;;;;;;;14.07;2.27;;;;;;;12.74;73.38;101172.78;5059103;28;20222;-62
2023/01/05 08:23:18;;;;;;;9.77;1.53;;;;;;;12.76;72.93;101175.28;5053698;28;20211;-62
2023/01/05 08:25:54;;;;;;;14.80;2.30;;;;;;;12.77;72.68;101184.94;5058970;28;20256;-62
2023/01/05 08:28:23;;;;;;;10.17;2.50;;;;;;;12.79;72.16;101182.97;5058826;28;20212;-62
2023/01/05 08:31:04;;;;;;;11.13;1.93;;;;;;;12.81;72.36;101194.31;5053923;28;20225;-61
2023/01/05 08:33:32;;;;;;;13.37;2.13;;;;;;;12.83;71.61;101197.69;5056694;28;20235;-62
2023/01/05 08:36:00;;;;;;;15.20;1.80;;;;;;;12.77;72.25;101198.25;5059549;28;20209;-62
2023/01/05 08:38:27;;;;;;;15.67;2.00;;;;;;;12.79;72.32;101206.94;5058003;28;20214;-62
2023/01/05 08:40:59;;;;;;;8.83;1.60;;;;;;;12.78;72.49;101208.75;5060790;28;20608;-62
2023/01/05 08:43:27;;;;;;;11.83;2.37;;;;;;;12.80;72.83;101213.94;5059376;28;20213;-62
2023/01/05 08:45:55;;;;;;;9.60;1.77;;;;;;;12.81;73.01;101215.63;5055696;28;20928;-62
2023/01/05 08:48:23;;;;;;;8.70;1.50;;;;;;;12.86;72.60;101212.50;5056197;28;20207;-62
2023/01/05 08:50:51;;;;;;;8.60;1.50;;;;;;;12.81;72.89;101218.28;5056826;28;20218;-61
2023/01/05 08:53:19;;;;;;;7.43;2.10;;;;;;;12.78;73.35;101215.91;5054868;28;20225;-61
2023/01/05 08:55:46;;;;;;;13.37;1.93;;;;;;;12.80;73.59;101214.78;5055390;28;20204;-61
2023/01/05 08:58:15;;;;;;;12.67;2.63;;;;;;;12.80;73.79;101216.59;5057347;28;20212;-61
2023/01/05 09:00:43;;;;;;;10.93;2.17;;;;;;;12.81;73.84;101219.13;5057605;28;20238;-60
2023/01/05 09:03:11;;;;;;;14.20;2.50;;;;;;;12.80;74.14;101212.13;5058169;28;20213;-61
2023/01/05 09:05:39;;;;;;;15.83;2.10;;;;;;;12.85;73.84;101216.16;5057783;28;20214;-62
2023/01/05 09:08:10;;;;;;;12.00;2.10;;;;;;;12.92;73.85;101222.59;5059958;28;20883;-61
2023/01/05 09:10:37;;;;;;;14.37;2.40;;;;;;;12.98;73.73;101222.00;5064759;28;20209;-61
2023/01/05 09:13:05;;;;;;;14.53;2.33;;;;;;;13.01;73.60;101217.25;5062211;28;20215;-61
2023/01/05 09:15:34;;;;;;;15.70;2.23;;;;;;;13.04;73.36;101222.25;5057897;28;20223;-61
2023/01/05 09:18:02;;;;;;;12.13;2.13;;;;;;;13.08;73.45;101223.66;5060290;28;20334;-62
2023/01/05 09:20:30;;;;;;;10.80;2.03;;;;;;;13.09;73.33;101222.69;5058692;28;20700;-61
2023/01/05 09:23:06;;;;;;;12.60;2.20;;;;;;;13.15;72.92;101223.94;5062481;28;20209;-63
2023/01/05 09:25:33;;;;;;;10.17;2.13;;;;;;;13.18;72.74;101226.31;5058078;28;20290;-61
2023/01/05 09:28:01;;;;;;;12.57;2.30;;;;;;;13.16;72.56;101234.44;5057170;28;20239;-61
2023/01/05 09:30:29;;;;;;;14.00;2.20;;;;;;;13.17;72.56;101240.59;5058063;28;20251;-62
2023/01/05 09:33:08;;;;;;;15.93;3.03;;;;;;;13.14;72.39;101238.22;5059818;28;20804;-62
2023/01/05 09:35:36;;;;;;;13.33;2.40;;;;;;;13.12;72.43;101233.00;5059592;28;20687;-61
2023/01/05 09:38:03;;;;;;;13.00;2.83;;;;;;;13.14;72.56;101239.06;5064151;28;20303;-61
2023/01/05 09:40:37;;;;;;;19.10;3.13;;;;;;;13.23;72.20;101233.84;5058462;28;20212;-61
2023/01/05 09:43:06;;;;;;;17.50;2.80;;;;;;;13.25;71.81;101231.88;5058816;28;20295;-61
2023/01/05 09:45:34;;;;;;;11.37;2.63;;;;;;;13.24;71.98;101252.34;5058742;28;20220;-60
2023/01/05 09:48:01;;;;;;;23.80;3.67;;;;;;;13.21;71.78;101249.97;5057788;28;20224;-61
2023/01/05 09:50:31;;;;;;;11.60;2.87;;;;;;;13.21;71.82;101243.81;5060820;28;20695;-60
2023/01/05 09:53:00;;;;;;;16.27;2.27;;;;;;;13.23;71.87;101242.69;5055592;28;20232;-60
2023/01/05 09:55:31;;;;;;;16.30;3.20;;;;;;;13.22;71.47;101232.16;5058131;28;20270;-61
2023/01/05 09:58:04;;;;;;;13.90;2.57;;;;;;;13.24;71.75;101228.38;5060012;28;20211;-61
2023/01/05 10:00:33;;;;;;;12.53;3.10;;;;;;;13.29;71.81;101230.59;5058262;28;20238;-61
2023/01/05 10:03:06;;;;;;;14.63;2.60;;;;;;;13.31;71.64;101239.28;5055359;28;20208;-61
2023/01/05 10:05:40;;;;;;;12.43;2.40;;;;;;;13.36;71.34;101237.03;5053636;28;22098;-61
2023/01/05 10:08:16;;;;;;;14.17;2.83;;;;;;;13.34;70.88;101225.69;5058249;28;20673;-62
2023/01/05 10:13:01;;;;;;;12.40;2.37;;;;;;;13.44;70.53;101229.13;5058998;28;20253;-62
2023/01/05 10:13:38;;;;;;;10.87;2.53;;;;;;;13.50;70.05;101233.84;5053072;28;20209;-61
2023/01/05 10:16:06;;;;;;;15.77;2.87;;;;;;;13.50;70.22;101240.03;5056703;28;20200;-62
2023/01/05 10:18:36;;;;;;;12.67;2.40;;;;;;;13.51;69.91;101239.03;5057654;28;20746;-61
2023/01/05 10:21:17;;;;;;;13.33;2.70;;;;;;;13.57;69.95;101240.25;5061017;28;20282;-61
2023/01/05 10:24:00;;;;;;;14.03;2.40;;;;;;;13.64;69.71;101241.34;5062452;28;20261;-61
2023/01/05 10:26:34;;;;;;;16.40;2.50;;;;;;;13.84;69.19;101250.91;5059839;28;20245;-61
2023/01/05 10:29:27;;;;;;;14.67;2.30;;;;;;;14.01;67.80;101238.56;5052307;28;20609;-60
2023/01/05 10:31:59;;;;;;;14.93;2.23;;;;;;;14.04;67.48;101237.44;5057377;28;21694;-60
2023/01/05 10:34:47;;;;;;;22.77;3.50;;;;;;;13.96;67.11;101248.03;5056667;28;20342;-62
2023/01/05 10:37:47;;;;;;;14.70;3.10;;;;;;;13.90;67.59;101242.28;5055289;28;20299;-60
2023/01/05 10:40:28;;;;;;;16.27;3.13;;;;;;;13.95;67.71;101247.19;5060603;28;20209;-62
2023/01/05 10:43:19;;;;;;;11.83;2.63;;;;;;;14.00;67.60;101246.72;5060068;28;20222;-61
2023/01/05 10:45:47;;;;;;;18.93;4.00;;;;;;;13.98;67.34;101246.91;5058099;28;20300;-63
2023/01/05 10:48:36;;;;;;;19.40;3.20;;;;;;;13.94;67.19;101251.69;5058210;28;20233;-62
2023/01/05 10:51:05;;;;;;;18.90;3.63;;;;;;;13.97;67.44;101252.38;5055790;28;20662;-61
2023/01/05 10:53:38;;;;;;;14.83;2.47;;;;;;;14.04;66.99;101258.78;5061379;28;20214;-61
2023/01/05 10:56:11;;;;;;;16.60;3.10;;;;;;;14.06;66.50;101246.13;5056446;28;20212;-61
2023/01/05 10:58:41;;;;;;;14.57;3.10;;;;;;;14.05;65.91;101255.13;5052902;28;20213;-62
2023/01/05 11:01:22;;;;;;;16.27;3.27;;;;;;;14.12;65.65;101248.19;5052159;28;20558;-62
2023/01/05 11:03:55;;;;;;;12.93;2.93;;;;;;;14.23;65.89;101254.16;5050713;28;20821;-61
2023/01/05 11:06:43;;;;;;;14.10;3.07;;;;;;;14.39;65.65;101253.47;5055594;28;20238;-65
2023/01/05 11:09:17;;;;;;;14.53;3.80;;;;;;;14.90;64.53;101247.34;5058624;28;20633;-62
2023/01/05 11:11:54;;;;;;;18.20;3.10;;;;;;;15.91;62.09;101253.69;5052140;28;20199;-62
2023/01/05 11:14:23;;;;;;;12.87;2.77;;;;;;;16.08;59.58;101244.69;5053124;28;20211;-63
2023/01/05 11:16:52;;;;;;;12.43;3.67;;;;;;;15.80;60.20;101246.78;5056686;28;20652;-62
2023/01/05 11:19:24;;;;;;;15.37;3.03;;;;;;;15.46;60.48;101253.16;5053625;28;20215;-65
2023/01/05 11:21:52;;;;;;;12.80;2.87;;;;;;;15.14;61.56;101260.00;5050248;28;20262;-62
2023/01/05 11:24:32;;;;;;;15.73;3.50;;;;;;;14.87;62.58;101257.50;5055050;28;20666;-62
2023/01/05 11:27:02;;;;;;;15.17;3.30;;;;;;;14.69;63.30;101263.72;5047893;28;21056;-62
2023/01/05 11:29:30;;;;;;;17.53;3.30;;;;;;;14.58;63.96;101269.31;5058481;28;20218;-63
2023/01/05 11:32:00;;;;;;;11.83;2.80;;;;;;;14.46;64.67;101267.88;5052291;28;20215;-62
2023/01/05 11:34:34;;;;;;;17.07;2.93;;;;;;;14.36;65.14;101271.56;5052078;28;20309;-62
2023/01/05 11:37:06;;;;;;;18.93;3.30;;;;;;;14.23;65.35;101272.81;5051225;28;20310;-62
2023/01/05 11:39:41;;;;;;;21.80;3.30;;;;;;;14.14;65.57;101271.06;5052487;28;20211;-62
2023/01/05 11:42:17;;;;;;;13.53;2.37;;;;;;;14.17;65.71;101269.91;5054214;28;20199;-64
2023/01/05 11:44:55;;;;;;;16.60;3.00;;;;;;;14.15;65.61;101270.06;5051530;28;20270;-63
2023/01/05 11:47:29;;;;;;;19.00;3.17;;;;;;;14.22;65.71;101272.97;5055270;28;20309;-61
2023/01/05 11:50:01;;;;;;;17.33;3.03;;;;;;;14.30;65.64;101270.38;5059698;28;20268;-60
2023/01/05 11:52:38;;;;;;;13.43;2.60;;;;;;;14.40;65.23;101270.31;5058716;28;20659;-62
2023/01/05 11:55:30;;;;;;;12.37;3.07;;;;;;;14.55;65.54;101263.44;5057032;28;20555;-63
2023/01/05 11:58:20;;;;;;;19.23;3.53;;;;;;;14.80;64.46;101261.78;5052583;28;20737;-63
2023/01/05 12:01:24;;;;;;;21.30;3.27;;;;;;;14.81;64.46;101263.47;5053354;28;20211;-63
2023/01/05 12:04:05;;;;;;;10.93;2.53;;;;;;;14.74;64.20;101270.44;5051364;28;20211;-69
2023/01/05 12:06:50;;;;;;;16.77;3.10;;;;;;;14.63;64.65;101269.69;5055006;28;20211;-66
2023/01/05 12:09:25;;;;;;;15.97;3.20;;;;;;;14.56;65.14;101271.31;5054288;28;21053;-63
2023/01/05 12:12:14;;;;;;;12.33;2.33;;;;;;;14.63;64.37;101266.16;5054694;28;20231;-64